Time;durP1;ratioP1;P1;durP2;ratioP2;P2;SDS_P1;SDS_P2;PMS_P1;PMS_P2;Temp;Humidity;BMP_temperature;BMP_pressure;BME280_temperature;BME280_humidity;BME280_pressure;Samples;Min_cycle;Max_cycle;Signal;HPM_P1;HPM_P2
2023/02/14 00:00:43;;;;;;;11.27;6.03;;;;;;;1.31;100.00;102831.19;5211328;28;20090;-72
2023/02/14 00:03:13;;;;;;;11.43;6.10;;;;;;;1.18;100.00;102832.41;5202165;28;20025;-72
2023/02/14 00:05:44;;;;;;;10.70;5.82;;;;;;;1.20;100.00;102837.66;5200023;28;20104;-71
2023/02/14 00:08:14;;;;;;;12.40;6.35;;;;;;;1.51;100.00;102818.22;5196904;28;20038;-73
2023/02/14 00:10:45;;;;;;;11.40;6.15;;;;;;;1.40;100.00;102819.53;5198304;28;20021;-72
2023/02/14 00:13:15;;;;;;;12.18;5.63;;;;;;;1.25;100.00;102824.09;5185542;28;20053;-72
2023/02/14 00:15:45;;;;;;;12.18;6.35;;;;;;;1.25;100.00;102823.22;5206905;28;20144;-72
2023/02/14 00:18:16;;;;;;;11.30;6.35;;;;;;;1.11;100.00;102835.59;5210430;28;20111;-72
2023/02/14 00:20:46;;;;;;;12.45;6.60;;;;;;;1.37;100.00;102823.69;5200683;28;20450;-72
2023/02/14 00:23:16;;;;;;;10.75;5.72;;;;;;;1.34;100.00;102829.59;5209759;28;20029;-73
2023/02/14 00:25:46;;;;;;;11.60;6.20;;;;;;;1.10;100.00;102822.66;5204339;28;20046;-73
2023/02/14 00:28:17;;;;;;;12.88;6.65;;;;;;;1.29;100.00;102826.00;5203259;28;20052;-72
2023/02/14 00:30:47;;;;;;;12.90;6.25;;;;;;;1.30;100.00;102817.44;5208325;28;20072;-73
2023/02/14 00:33:17;;;;;;;11.93;6.05;;;;;;;1.32;100.00;102825.22;5205503;28;20387;-72
2023/02/14 00:35:48;;;;;;;11.52;6.30;;;;;;;1.43;100.00;102814.47;5206301;28;20553;-73
2023/02/14 00:39:05;;;;;;;12.55;6.85;;;;;;;1.36;100.00;102821.91;5204600;28;20079;-73
2023/02/14 00:41:35;;;;;;;10.38;6.25;;;;;;;1.25;100.00;102823.22;5207893;28;20043;-72
2023/02/14 00:44:06;;;;;;;9.63;5.50;;;;;;;1.34;100.00;102826.13;5204607;28;20033;-72
2023/02/14 00:46:37;;;;;;;13.50;6.95;;;;;;;1.12;100.00;102827.06;5212271;28;20021;-71
2023/02/14 00:49:07;;;;;;;14.75;6.97;;;;;;;1.15;100.00;102821.13;5208110;28;20029;-72
2023/02/14 00:51:38;;;;;;;12.20;6.95;;;;;;;1.14;100.00;102827.97;5207999;28;20025;-72
2023/02/14 00:54:09;;;;;;;22.30;10.32;;;;;;;1.18;100.00;102829.84;5204053;28;20029;-72
2023/02/14 00:56:39;;;;;;;20.35;9.93;;;;;;;1.08;100.00;102832.88;5186136;28;20029;-71
2023/02/14 00:59:09;;;;;;;14.63;7.80;;;;;;;0.97;100.00;102835.84;5205128;28;20402;-72
2023/02/14 01:01:40;;;;;;;14.43;7.18;;;;;;;0.98;100.00;102828.22;5193261;28;20091;-72
2023/02/14 01:04:10;;;;;;;13.60;6.53;;;;;;;0.97;100.00;102825.56;5213186;28;20477;-73
2023/02/14 01:06:40;;;;;;;12.30;6.70;;;;;;;0.89;100.00;102827.84;5201062;28;20028;-71
2023/02/14 01:09:11;;;;;;;13.30;6.85;;;;;;;0.88;100.00;102831.22;5201458;28;20108;-72
2023/02/14 01:11:41;;;;;;;13.13;6.53;;;;;;;0.92;100.00;102825.38;5203875;28;20025;-71
2023/02/14 01:14:11;;;;;;;11.35;6.43;;;;;;;0.91;100.00;102821.03;5203646;28;20037;-72
2023/02/14 01:17:35;;;;;;;16.05;6.95;;;;;;;0.98;100.00;102820.47;5203402;28;20113;-71
2023/02/14 01:20:06;;;;;;;13.60;7.13;;;;;;;1.16;100.00;102823.75;5200220;28;20495;-71
2023/02/14 01:29:55;;;;;;;15.27;7.60;;;;;;;1.32;100.00;102814.91;5198643;28;20025;-71
2023/02/14 01:32:28;;;;;;;15.50;8.48;;;;;;;1.26;100.00;102809.53;5189873;28;20072;-71
2023/02/14 01:34:59;;;;;;;13.38;7.05;;;;;;;1.25;100.00;102813.78;5205363;28;20033;-72
2023/02/14 01:37:29;;;;;;;14.55;7.50;;;;;;;1.28;100.00;102815.63;5209232;28;20114;-72
2023/02/14 01:40:01;;;;;;;15.45;7.80;;;;;;;1.19;100.00;102811.00;5206755;28;20498;-72
2023/02/14 01:42:32;;;;;;;13.68;7.43;;;;;;;1.25;100.00;102808.63;5202973;28;20411;-72
2023/02/14 01:45:04;;;;;;;13.55;7.80;;;;;;;1.43;100.00;102814.47;5196397;28;20023;-73
2023/02/14 01:47:40;;;;;;;15.55;7.72;;;;;;;1.46;100.00;102814.63;5191433;28;20025;-73
2023/02/14 01:50:21;;;;;;;15.10;7.88;;;;;;;1.44;100.00;102811.06;5202392;28;20025;-72
2023/02/14 01:53:01;;;;;;;15.10;7.88;;;;;;;1.37;100.00;102809.09;5209262;28;20060;-72
2023/02/14 01:55:35;;;;;;;14.80;7.60;;;;;;;1.24;100.00;102806.03;5205905;28;20026;-72
2023/02/14 01:58:12;;;;;;;19.45;8.45;;;;;;;1.23;100.00;102805.13;5185217;28;20150;-72
2023/02/14 02:03:44;;;;;;;14.32;8.10;;;;;;;1.34;100.00;102808.09;5202160;28;20048;-72
2023/02/14 02:06:14;;;;;;;17.02;8.65;;;;;;;1.31;100.00;102808.88;5208907;28;20378;-72
2023/02/14 02:08:51;;;;;;;16.25;8.02;;;;;;;1.56;100.00;102796.06;5182866;28;20033;-71
2023/02/14 02:11:21;;;;;;;15.35;8.63;;;;;;;1.49;100.00;102804.41;5203875;28;20033;-71
2023/02/14 02:13:52;;;;;;;18.25;8.38;;;;;;;1.39;100.00;102797.16;5219128;28;20040;-72
2023/02/14 02:16:28;;;;;;;13.52;7.75;;;;;;;1.38;100.00;102790.25;5214458;28;20029;-72
2023/02/14 02:19:16;;;;;;;14.45;7.90;;;;;;;1.54;100.00;102787.41;5228340;22;20040;-73
2023/02/14 02:22:14;;;;;;;13.93;7.60;;;;;;;1.29;100.00;102789.94;5206875;28;20033;-74
2023/02/14 02:25:04;;;;;;;13.68;7.40;;;;;;;1.39;100.00;102778.28;5210650;28;20062;-73
2023/02/14 02:28:02;;;;;;;16.45;7.35;;;;;;;1.20;100.00;102784.44;5206800;28;20117;-75
2023/02/14 02:31:14;;;;;;;17.65;7.57;;;;;;;0.99;100.00;102787.88;5197194;28;20202;-74
2023/02/14 02:33:53;;;;;;;16.85;8.50;;;;;;;1.11;100.00;102788.34;5196548;28;20029;-74
2023/02/14 02:36:36;;;;;;;16.27;8.20;;;;;;;1.00;100.00;102793.09;5195341;28;20125;-75
2023/02/14 02:39:21;;;;;;;12.55;7.30;;;;;;;0.97;100.00;102794.66;5197063;28;20041;-74
2023/02/14 02:42:03;;;;;;;17.65;8.05;;;;;;;0.99;100.00;102782.72;5202711;28;20427;-73
2023/02/14 02:44:47;;;;;;;14.63;8.00;;;;;;;0.82;100.00;102783.78;5201743;28;20489;-73
2023/02/14 02:47:43;;;;;;;15.68;8.05;;;;;;;0.84;100.00;102783.03;5197150;28;20033;-76
2023/02/14 02:53:26;;;;;;;17.23;8.20;;;;;;;0.82;100.00;102771.81;5191250;28;20036;-73
2023/02/14 02:59:03;;;;;;;18.10;8.35;;;;;;;0.75;100.00;102767.22;5188628;28;20553;-75
2023/02/14 03:01:41;;;;;;;16.80;8.38;;;;;;;0.74;100.00;102765.47;5193839;28;20290;-74
2023/02/14 03:07:33;;;;;;;16.75;8.70;;;;;;;0.90;100.00;102756.66;5187839;28;20076;-73
2023/02/14 03:09:56;;;;;;;16.27;7.68;;;;;;;0.79;100.00;102766.53;5196020;28;20037;-72
2023/02/14 03:12:32;;;;;;;17.63;8.90;;;;;;;0.84;100.00;102761.56;5197187;28;20509;-75
2023/02/14 03:15:31;;;;;;;15.18;8.50;;;;;;;0.60;100.00;102764.06;5193584;28;20029;-74
2023/02/14 03:21:20;;;;;;;14.95;7.97;;;;;;;0.49;100.00;102757.63;5195597;28;20040;-73
2023/02/14 03:24:04;;;;;;;14.85;7.85;;;;;;;0.65;100.00;102752.25;5206012;28;20025;-73
2023/02/14 03:26:47;;;;;;;14.73;8.50;;;;;;;0.67;100.00;102750.63;5195171;28;20521;-73
2023/02/14 03:29:35;;;;;;;17.70;8.55;;;;;;;0.69;100.00;102753.28;5203985;28;20185;-75
2023/02/14 03:32:30;;;;;;;15.30;8.05;;;;;;;0.66;100.00;102750.56;5189376;28;20083;-73
2023/02/14 03:35:14;;;;;;;15.80;8.35;;;;;;;0.92;100.00;102743.00;5192494;28;20022;-74
2023/02/14 03:37:55;;;;;;;17.88;8.50;;;;;;;0.89;100.00;102736.88;5196194;28;20533;-74
2023/02/14 03:40:32;;;;;;;18.08;8.30;;;;;;;0.83;100.00;102736.63;5202437;28;20087;-73
2023/02/14 03:43:12;;;;;;;15.43;7.75;;;;;;;0.73;100.00;102737.97;5202299;28;20029;-73
2023/02/14 03:45:53;;;;;;;15.98;8.18;;;;;;;1.01;100.00;102735.66;5195822;28;20480;-74
2023/02/14 03:48:26;;;;;;;17.52;8.82;;;;;;;0.92;100.00;102730.13;5201945;28;20116;-73
2023/02/14 03:50:58;;;;;;;17.55;8.93;;;;;;;1.01;100.00;102735.66;5202429;28;20675;-73
2023/02/14 03:53:33;;;;;;;16.67;8.82;;;;;;;0.98;100.00;102727.81;5191901;28;20065;-74
2023/02/14 03:56:18;;;;;;;17.08;8.63;;;;;;;0.86;100.00;102729.91;5186784;28;20028;-73
2023/02/14 03:58:52;;;;;;;20.15;10.00;;;;;;;0.97;100.00;102731.22;5184774;28;20029;-73
2023/02/14 04:01:31;;;;;;;16.40;8.05;;;;;;;1.07;100.00;102728.13;5192470;28;20038;-74
2023/02/14 04:04:05;;;;;;;19.05;8.80;;;;;;;1.06;100.00;102725.53;5195844;28;20037;-73
2023/02/14 04:06:35;;;;;;;16.55;8.63;;;;;;;1.14;100.00;102719.84;5195819;28;20572;-75
2023/02/14 04:09:05;;;;;;;19.58;8.55;;;;;;;0.97;100.00;102728.63;5192585;28;20080;-73
2023/02/14 04:11:37;;;;;;;22.50;8.48;;;;;;;0.83;100.00;102722.09;5191232;28;20395;-73
2023/02/14 04:14:07;;;;;;;16.60;8.40;;;;;;;0.71;100.00;102719.03;5216567;28;20048;-73
2023/02/14 04:19:26;;;;;;;19.50;7.57;;;;;;;0.77;100.00;102718.41;5197620;28;20053;-74
2023/02/14 04:21:57;;;;;;;13.90;8.20;;;;;;;0.78;100.00;102720.16;5200481;28;20029;-74
2023/02/14 04:24:27;;;;;;;14.70;8.48;;;;;;;0.74;100.00;102724.31;5193482;28;20083;-74
2023/02/14 04:27:09;;;;;;;15.38;8.18;;;;;;;0.80;100.00;102718.50;5200709;28;20706;-73
2023/02/14 04:29:45;;;;;;;14.57;8.02;;;;;;;0.71;100.00;102719.03;5193654;28;20022;-74
2023/02/14 04:32:19;;;;;;;14.18;8.57;;;;;;;0.75;100.00;102720.06;5201026;28;20060;-73
2023/02/14 04:34:49;;;;;;;14.57;8.60;;;;;;;0.75;100.00;102713.19;5195014;28;20172;-71
2023/02/14 04:37:19;;;;;;;15.07;8.32;;;;;;;0.87;100.00;102716.22;5206923;28;20030;-75
2023/02/14 04:39:49;;;;;;;16.83;9.07;;;;;;;0.70;100.00;102717.28;5194920;28;20040;-73
2023/02/14 04:42:20;;;;;;;14.43;8.27;;;;;;;0.71;100.00;102716.47;5200197;28;20029;-74
2023/02/14 04:44:50;;;;;;;14.98;7.82;;;;;;;0.78;100.00;102715.00;5186336;28;20483;-75
2023/02/14 04:47:20;;;;;;;19.98;7.88;;;;;;;0.62;100.00;102713.56;5194953;28;20033;-76
2023/02/14 04:49:51;;;;;;;15.02;8.35;;;;;;;0.70;100.00;102712.16;5195647;28;20044;-73
2023/02/14 04:52:21;;;;;;;17.02;8.07;;;;;;;0.75;100.00;102709.75;5187284;28;20049;-74
2023/02/14 04:54:52;;;;;;;30.95;8.20;;;;;;;0.60;100.00;102707.50;5181479;28;20022;-73
2023/02/14 04:57:22;;;;;;;14.55;7.93;;;;;;;0.71;100.00;102708.75;5184897;28;20509;-73
2023/02/14 04:59:52;;;;;;;17.48;7.55;;;;;;;0.79;100.00;102707.38;5192499;28;20096;-73
2023/02/14 05:02:23;;;;;;;15.45;7.65;;;;;;;0.75;100.00;102700.31;5195335;28;20438;-73
2023/02/14 05:04:53;;;;;;;17.65;7.60;;;;;;;0.78;100.00;102710.75;5191488;28;20022;-75
2023/02/14 05:07:23;;;;;;;19.65;7.63;;;;;;;0.81;100.00;102705.72;5190413;28;20026;-76
2023/02/14 05:09:54;;;;;;;14.30;7.65;;;;;;;0.86;100.00;102706.75;5192230;28;20057;-73
2023/02/14 05:12:24;;;;;;;23.48;8.15;;;;;;;0.84;100.00;102703.25;5198596;28;20314;-73
2023/02/14 05:14:56;;;;;;;16.25;8.20;;;;;;;0.96;100.00;102706.28;5193694;28;20026;-73
2023/02/14 05:17:26;;;;;;;35.45;8.38;;;;;;;0.93;100.00;102706.16;5185654;28;20049;-74
2023/02/14 05:19:56;;;;;;;31.55;8.15;;;;;;;1.02;100.00;102711.66;5210938;28;20498;-73
2023/02/14 05:22:27;;;;;;;21.38;7.93;;;;;;;1.00;100.00;102700.44;5213805;28;20029;-75
2023/02/14 05:24:57;;;;;;;30.50;8.40;;;;;;;1.06;100.00;102698.06;5187914;28;20053;-74
2023/02/14 05:27:27;;;;;;;18.27;8.23;;;;;;;1.17;100.00;102694.19;5190518;28;20047;-73
2023/02/14 05:29:58;;;;;;;20.88;8.02;;;;;;;1.27;100.00;102698.84;5207141;28;20041;-74
2023/02/14 05:32:28;;;;;;;18.70;9.23;;;;;;;1.25;100.00;102691.91;5198298;28;20319;-73
2023/02/14 05:34:58;;;;;;;14.70;8.85;;;;;;;1.26;100.00;102691.94;5194055;28;20053;-73
2023/02/14 05:37:28;;;;;;;15.82;8.70;;;;;;;1.23;100.00;102699.56;5193646;28;20260;-73
2023/02/14 05:39:59;;;;;;;17.88;9.52;;;;;;;1.29;100.00;102686.03;5198592;28;20040;-73
2023/02/14 05:42:29;;;;;;;28.10;9.13;;;;;;;1.27;100.00;102691.13;5198217;28;20029;-73
2023/02/14 05:44:59;;;;;;;24.40;8.88;;;;;;;1.23;100.00;102691.84;5208998;28;20053;-73
2023/02/14 05:47:30;;;;;;;18.38;8.32;;;;;;;1.27;100.00;102688.53;5177863;28;20331;-73
2023/02/14 05:50:00;;;;;;;19.23;8.65;;;;;;;1.24;100.00;102698.72;5184877;28;20030;-75
2023/02/14 05:52:30;;;;;;;14.23;8.30;;;;;;;1.20;100.00;102694.31;5194279;28;20021;-73
2023/02/14 05:55:01;;;;;;;22.13;7.70;;;;;;;1.16;100.00;102696.72;5179848;28;20018;-74
2023/02/14 05:57:31;;;;;;;22.17;8.95;;;;;;;1.14;100.00;102694.09;5191834;28;20052;-73
2023/02/14 06:00:05;;;;;;;24.20;9.32;;;;;;;1.11;100.00;102683.69;5190259;28;20034;-74
2023/02/14 06:02:35;;;;;;;22.00;8.45;;;;;;;1.12;100.00;102694.84;5197052;28;20021;-73
2023/02/14 06:05:06;;;;;;;36.58;9.02;;;;;;;1.13;100.00;102694.91;5193466;28;20176;-73
2023/02/14 06:07:37;;;;;;;16.05;8.55;;;;;;;1.16;100.00;102695.03;5186147;28;20041;-74
2023/02/14 06:10:08;;;;;;;14.88;8.45;;;;;;;1.20;100.00;102686.59;5191269;28;20033;-74
2023/02/14 06:12:39;;;;;;;16.40;7.90;;;;;;;1.22;100.00;102692.66;5193209;28;20022;-73
2023/02/14 06:15:09;;;;;;;13.43;8.02;;;;;;;1.19;100.00;102700.28;5210538;28;20021;-74
2023/02/14 06:17:40;;;;;;;16.67;7.55;;;;;;;1.16;100.00;102701.84;5190430;28;20120;-74
2023/02/14 06:20:10;;;;;;;14.50;7.72;;;;;;;1.16;100.00;102697.59;5197425;28;20490;-74
2023/02/14 06:22:41;;;;;;;14.95;8.38;;;;;;;1.20;100.00;102702.03;5190453;28;20026;-73
2023/02/14 06:25:11;;;;;;;22.45;8.77;;;;;;;1.11;100.00;102699.13;5193800;28;20018;-74
2023/02/14 06:27:42;;;;;;;14.75;8.27;;;;;;;1.21;100.00;102706.34;5192055;28;20601;-75
2023/02/14 06:30:13;;;;;;;18.77;8.65;;;;;;;1.16;100.00;102710.47;5197110;28;20401;-73
2023/02/14 06:32:44;;;;;;;26.15;8.35;;;;;;;1.12;100.00;102713.75;5214853;28;20384;-76
2023/02/14 06:35:14;;;;;;;20.67;8.38;;;;;;;1.14;100.00;102704.41;5200056;28;20021;-75
2023/02/14 06:37:44;;;;;;;15.48;7.70;;;;;;;1.24;100.00;102714.19;5198918;28;20036;-74
2023/02/14 06:40:15;;;;;;;21.17;7.82;;;;;;;1.10;100.00;102699.94;5201429;28;20033;-75
2023/02/14 06:42:45;;;;;;;13.65;7.93;;;;;;;1.22;100.00;102710.69;5197225;28;20490;-76
2023/02/14 06:45:16;;;;;;;21.85;8.23;;;;;;;1.24;100.00;102710.75;5192797;28;20014;-75
2023/02/14 06:47:46;;;;;;;25.30;8.65;;;;;;;1.16;100.00;102719.88;5182841;28;20034;-75
2023/02/14 06:50:16;;;;;;;14.93;8.30;;;;;;;1.26;100.00;102711.69;5182954;28;20030;-75
2023/02/14 06:52:47;;;;;;;17.67;7.95;;;;;;;1.31;100.00;102725.59;5191782;28;20029;-72
2023/02/14 06:55:17;;;;;;;14.75;7.90;;;;;;;1.30;100.00;102713.53;5180835;28;20029;-75
2023/02/14 06:57:48;;;;;;;13.70;6.97;;;;;;;1.28;100.00;102716.06;5181555;28;20045;-74
2023/02/14 07:00:18;;;;;;;14.77;6.75;;;;;;;1.11;100.00;102712.00;5211698;28;20030;-74
2023/02/14 07:02:49;;;;;;;14.35;7.07;;;;;;;1.21;100.00;102708.94;5203364;28;20021;-75
2023/02/14 07:05:19;;;;;;;21.30;7.22;;;;;;;1.15;100.00;102712.97;5196286;28;20022;-74
2023/02/14 07:07:50;;;;;;;11.88;6.72;;;;;;;1.17;100.00;102712.22;5199283;28;20502;-74
2023/02/14 07:10:20;;;;;;;12.88;7.25;;;;;;;1.26;100.00;102707.38;5203805;28;20037;-75
2023/02/14 07:12:50;;;;;;;23.13;6.78;;;;;;;1.17;100.00;102711.31;5202828;28;20036;-76
2023/02/14 07:15:21;;;;;;;14.30;6.68;;;;;;;1.12;100.00;102711.19;5196180;28;20496;-75
2023/02/14 07:17:52;;;;;;;14.77;6.95;;;;;;;1.09;100.00;102716.19;5193129;28;20547;-75
2023/02/14 07:20:23;;;;;;;17.33;6.38;;;;;;;1.11;100.00;102716.28;5201641;28;20107;-75
2023/02/14 07:22:54;;;;;;;36.35;6.80;;;;;;;1.06;100.00;102720.38;5198866;28;20387;-75
2023/02/14 07:25:24;;;;;;;12.90;6.60;;;;;;;1.11;100.00;102714.59;5182865;28;20032;-73
2023/02/14 07:27:54;;;;;;;16.38;7.00;;;;;;;1.14;100.00;102722.41;5183437;28;20670;-75
2023/02/14 07:30:25;;;;;;;10.77;6.28;;;;;;;1.19;100.00;102726.03;5184052;28;20116;-73
2023/02/14 07:32:56;;;;;;;11.18;5.97;;;;;;;1.06;100.00;102722.97;5184140;28;20057;-75
2023/02/14 07:35:27;;;;;;;12.40;5.63;;;;;;;1.12;100.00;102724.06;5182413;28;20310;-75
2023/02/14 07:37:57;;;;;;;20.65;5.90;;;;;;;1.11;100.00;102714.59;5182608;28;20065;-75
2023/02/14 07:40:28;;;;;;;19.75;5.80;;;;;;;1.08;100.00;102726.47;5181020;28;20755;-75
2023/02/14 07:42:59;;;;;;;36.72;5.82;;;;;;;1.17;100.00;102725.09;5181791;28;20403;-75
2023/02/14 07:45:30;;;;;;;16.08;6.22;;;;;;;1.26;100.00;102724.56;5193091;28;20033;-75
2023/02/14 07:48:03;;;;;;;17.05;6.65;;;;;;;1.27;100.00;102724.59;5180031;28;20116;-75
2023/02/14 07:50:33;;;;;;;20.10;6.43;;;;;;;1.32;100.00;102722.19;5182329;28;20075;-75
2023/02/14 07:53:04;;;;;;;14.13;5.90;;;;;;;1.43;100.00;102716.59;5190558;28;20284;-75
2023/02/14 07:55:34;;;;;;;13.07;6.25;;;;;;;1.49;100.00;102711.69;5189762;28;20029;-75
2023/02/14 07:58:05;;;;;;;11.25;6.05;;;;;;;1.51;100.00;102710.03;5191808;28;20029;-75
2023/02/14 08:00:35;;;;;;;18.15;6.03;;;;;;;1.39;100.00;102714.72;5194641;28;20479;-76
2023/02/14 08:03:06;;;;;;;16.77;6.63;;;;;;;1.51;100.00;102710.03;5201987;28;20030;-76
2023/02/14 08:05:36;;;;;;;9.80;6.43;;;;;;;1.66;100.00;102707.09;5192165;28;20451;-76
2023/02/14 08:08:07;;;;;;;13.90;6.22;;;;;;;1.64;100.00;102707.06;5191324;28;20124;-76
2023/02/14 08:10:37;;;;;;;11.82;5.80;;;;;;;1.79;100.00;102707.59;5197195;28;20022;-74
2023/02/14 08:13:07;;;;;;;19.02;5.63;;;;;;;1.76;100.00;102702.31;5193851;28;20029;-76
2023/02/14 08:18:27;;;;;;;11.95;6.22;;;;;;;1.85;100.00;102705.19;5197114;28;20040;-75
2023/02/14 08:20:57;;;;;;;15.55;6.25;;;;;;;1.87;100.00;102703.53;5247803;22;20426;-77
2023/02/14 08:23:28;;;;;;;16.33;5.90;;;;;;;2.02;100.00;102704.06;5207949;28;20041;-78
2023/02/14 08:25:59;;;;;;;15.82;6.35;;;;;;;2.09;100.00;102698.25;5207163;28;20089;-78
2023/02/14 08:28:31;;;;;;;10.50;6.03;;;;;;;2.17;100.00;102707.13;5208262;28;20494;-78
2023/02/14 08:31:03;;;;;;;14.00;5.78;;;;;;;2.23;100.00;102697.00;5201384;28;20545;-79
2023/02/14 08:33:34;;;;;;;11.27;6.28;;;;;;;2.31;100.00;102699.00;5212139;28;20033;-79
2023/02/14 08:36:04;;;;;;;12.48;5.95;;;;;;;2.19;100.00;102701.19;5203771;28;20037;-78
2023/02/14 08:38:34;;;;;;;15.82;5.72;;;;;;;2.26;100.00;102703.16;5201007;28;20562;-77
2023/02/14 08:41:05;;;;;;;11.23;5.72;;;;;;;2.35;100.00;102692.25;5190238;28;20033;-78
2023/02/14 08:43:35;;;;;;;27.73;5.97;;;;;;;2.27;100.00;102694.56;5197616;28;20391;-78
2023/02/14 08:46:05;;;;;;;15.25;5.97;;;;;;;2.42;100.00;102700.22;5204997;28;20032;-78
2023/02/14 08:48:36;;;;;;;34.30;5.85;;;;;;;2.42;100.00;102705.38;5201531;28;20482;-78
2023/02/14 08:51:08;;;;;;;17.73;6.15;;;;;;;2.58;100.00;102702.44;5206798;28;20040;-76
2023/02/14 08:53:40;;;;;;;14.35;6.53;;;;;;;2.52;100.00;102697.06;5202041;28;20025;-76
2023/02/14 08:56:13;;;;;;;19.52;6.18;;;;;;;2.63;100.00;102694.81;5201230;28;20087;-76
2023/02/14 08:58:43;;;;;;;14.13;6.43;;;;;;;2.75;100.00;102698.66;5190139;28;20052;-78
2023/02/14 09:01:16;;;;;;;17.85;6.15;;;;;;;2.80;100.00;102702.25;5200994;28;20455;-76
2023/02/14 09:03:46;;;;;;;23.48;5.65;;;;;;;2.85;100.00;102707.56;5206536;28;20116;-77
2023/02/14 09:06:17;;;;;;;34.15;6.30;;;;;;;2.86;100.00;102698.97;5210006;28;20125;-75
2023/02/14 09:08:47;;;;;;;16.80;6.03;;;;;;;2.97;100.00;102698.47;5205311;28;20044;-76
2023/02/14 09:11:23;;;;;;;13.10;6.32;;;;;;;3.14;100.00;102698.94;5204158;28;20025;-74
2023/02/14 09:13:53;;;;;;;25.83;6.50;;;;;;;3.08;100.00;102701.34;5201236;28;20511;-76
2023/02/14 09:16:24;;;;;;;13.82;6.05;;;;;;;3.25;100.00;102706.16;5187086;28;20340;-75
2023/02/14 09:18:55;;;;;;;16.42;5.70;;;;;;;3.45;100.00;102704.13;5205313;28;20372;-77
2023/02/14 09:21:27;;;;;;;12.65;5.50;;;;;;;3.36;100.00;102704.75;5203092;28;20040;-76
2023/02/14 09:23:57;;;;;;;41.08;5.50;;;;;;;3.30;100.00;102695.94;5201464;28;20042;-77
2023/02/14 09:26:28;;;;;;;12.35;5.75;;;;;;;3.51;100.00;102688.78;5210194;28;20036;-75
2023/02/14 09:28:58;;;;;;;11.50;5.57;;;;;;;3.47;100.00;102692.09;5202062;28;20343;-75
2023/02/14 09:31:28;;;;;;;9.65;5.13;;;;;;;3.60;100.00;102688.19;5196530;28;20574;-77
2023/02/14 09:33:59;;;;;;;22.83;5.63;;;;;;;3.59;100.00;102688.16;5201997;28;20339;-77
2023/02/14 09:36:29;;;;;;;10.32;5.25;;;;;;;3.87;100.00;102686.31;5202600;28;20029;-76
2023/02/14 09:38:59;;;;;;;10.85;5.35;;;;;;;3.89;100.00;102683.75;5208439;28;20052;-75
2023/02/14 09:41:29;;;;;;;11.23;4.97;;;;;;;3.93;100.00;102683.88;5211644;28;20425;-77
2023/02/14 09:44:00;;;;;;;42.90;4.97;;;;;;;3.81;100.00;102682.69;5203154;28;20396;-78
2023/02/14 09:46:41;;;;;;;10.80;4.97;;;;;;;3.76;100.00;102686.88;5210235;28;20490;-78
2023/02/14 09:49:21;;;;;;;22.90;4.95;;;;;;;3.59;100.00;102689.03;5201621;28;20112;-77
2023/02/14 09:51:52;;;;;;;20.80;5.35;;;;;;;3.29;100.00;102696.78;5207926;28;20501;-77
2023/02/14 09:54:26;;;;;;;37.20;7.18;;;;;;;3.19;100.00;102692.19;5200174;28;20053;-78
2023/02/14 09:57:09;;;;;;;30.52;6.20;;;;;;;3.47;100.00;102689.53;5204900;28;20036;-78
2023/02/14 10:00:01;;;;;;;29.67;6.10;;;;;;;3.65;100.00;102691.75;5201836;28;20017;-77
2023/02/14 10:03:16;;;;;;;13.63;6.18;;;;;;;3.81;100.00;102683.56;5207248;28;20030;-77
2023/02/14 10:05:56;;;;;;;14.95;6.30;;;;;;;3.91;100.00;102688.13;5130223;28;20158;-77
2023/02/14 10:08:39;;;;;;;19.27;6.13;;;;;;;4.08;100.00;102680.78;5200506;28;20580;-77
2023/02/14 10:11:15;;;;;;;13.68;6.30;;;;;;;4.12;100.00;102683.47;5190351;28;20033;-78
2023/02/14 10:13:56;;;;;;;11.95;6.03;;;;;;;4.25;100.00;102680.34;5207291;28;20029;-78
2023/02/14 10:16:38;;;;;;;12.27;6.85;;;;;;;4.38;100.00;102674.63;5188082;28;20490;-75
2023/02/14 10:19:25;;;;;;;9.32;6.35;;;;;;;4.49;100.00;102675.72;5192490;28;20052;-76
2023/02/14 10:22:01;;;;;;;9.68;5.75;;;;;;;4.52;100.00;102670.66;5211099;28;20059;-77
2023/02/14 10:24:57;;;;;;;;;;;;;;;4.38;100.00;102672.03;5201837;28;20108;-77
2023/02/14 10:27:42;;;;;;;15.20;5.93;;;;;;;4.63;100.00;102663.97;5181592;28;19921;-77
2023/02/14 10:30:21;;;;;;;9.47;5.60;;;;;;;4.65;100.00;102667.47;5200386;28;20167;-76
2023/02/14 10:32:54;;;;;;;12.07;5.80;;;;;;;4.74;100.00;102667.69;5205889;28;20029;-77
2023/02/14 10:35:58;;;;;;;9.38;5.50;;;;;;;4.91;100.00;102661.13;5200388;28;20044;-77
2023/02/14 10:38:35;;;;;;;10.07;5.63;;;;;;;5.03;100.00;102666.56;5208252;28;20031;-77
2023/02/14 10:41:24;;;;;;;10.52;5.63;;;;;;;4.89;100.00;102662.81;5188507;28;20031;-76
2023/02/14 10:44:33;;;;;;;9.20;6.20;;;;;;;5.17;100.00;102665.09;5205629;28;20546;-74
2023/02/14 10:47:08;;;;;;;12.15;5.88;;;;;;;5.26;100.00;102654.94;5189131;28;20072;-76
2023/02/14 10:49:49;;;;;;;11.35;6.43;;;;;;;5.11;100.00;102656.38;5212531;28;20013;-78
2023/02/14 10:52:33;;;;;;;11.95;6.50;;;;;;;5.23;100.00;102648.81;5211862;28;20556;-76
2023/02/14 10:55:48;;;;;;;15.80;6.60;;;;;;;5.34;100.00;102648.16;5204612;28;20410;-77
2023/02/14 10:58:21;;;;;;;9.60;6.50;;;;;;;5.50;100.00;102650.19;5152745;28;20034;-78
2023/02/14 11:00:58;;;;;;;10.85;6.57;;;;;;;5.69;100.00;102647.06;5212147;28;20021;-78
2023/02/14 11:03:28;;;;;;;11.35;6.63;;;;;;;5.77;100.00;102648.09;5212519;28;20036;-76
2023/02/14 11:05:59;;;;;;;11.05;6.80;;;;;;;5.86;100.00;102651.75;5206812;28;20033;-77
2023/02/14 11:08:38;;;;;;;10.35;6.75;;;;;;;5.78;100.00;102642.06;5206901;28;20115;-78
2023/02/14 11:11:17;;;;;;;11.75;7.25;;;;;;;5.63;100.00;102641.78;5207929;28;20040;-77
2023/02/14 11:13:47;;;;;;;12.20;7.43;;;;;;;5.89;100.00;102643.16;5215801;28;20029;-77
2023/02/14 11:16:29;;;;;;;11.63;7.00;;;;;;;5.94;100.00;102650.13;5207574;28;20017;-77
2023/02/14 11:19:14;;;;;;;11.63;7.32;;;;;;;5.97;100.00;102644.13;5206244;28;20025;-76
2023/02/14 11:21:46;;;;;;;11.87;7.50;;;;;;;5.89;100.00;102640.56;5208266;28;20051;-77
2023/02/14 11:24:25;;;;;;;13.27;7.80;;;;;;;6.17;100.00;102633.22;5213823;28;20815;-77
2023/02/14 11:27:02;;;;;;;12.93;8.23;;;;;;;6.56;100.00;102635.53;5206718;28;20069;-77
2023/02/14 11:29:37;;;;;;;12.27;7.88;;;;;;;6.43;100.00;102626.66;5205371;28;20044;-78
2023/02/14 11:32:36;;;;;;;11.57;7.40;;;;;;;6.11;100.00;102630.50;5214969;28;20032;-76
2023/02/14 11:35:17;;;;;;;12.52;7.80;;;;;;;6.12;100.00;102627.06;5187940;28;20092;-77
2023/02/14 11:37:50;;;;;;;11.45;7.80;;;;;;;6.45;100.00;102609.38;5209525;28;20399;-76
2023/02/14 11:40:26;;;;;;;14.68;8.40;;;;;;;6.56;100.00;102614.75;5205815;28;20033;-76
2023/02/14 11:43:17;;;;;;;14.35;7.40;;;;;;;6.45;100.00;102608.53;5197477;28;20036;-77
2023/02/14 11:45:48;;;;;;;12.40;7.50;;;;;;;6.55;100.00;102603.47;5203428;28;20434;-78
2023/02/14 11:48:24;;;;;;;11.68;7.90;;;;;;;6.70;100.00;102589.78;5209973;28;20025;-77
2023/02/14 11:51:13;;;;;;;11.65;7.88;;;;;;;6.73;100.00;102590.72;5209036;28;20469;-77
2023/02/14 11:53:47;;;;;;;13.10;7.90;;;;;;;6.90;100.00;102589.19;5207990;28;20078;-77
2023/02/14 11:56:19;;;;;;;14.32;8.65;;;;;;;7.05;100.00;102584.16;5211530;28;20038;-77
2023/02/14 11:58:55;;;;;;;13.02;8.43;;;;;;;7.15;100.00;102580.81;5202779;28;20021;-78
2023/02/14 12:01:33;;;;;;;13.45;8.57;;;;;;;7.29;100.00;102584.41;5211375;28;20124;-78
2023/02/14 12:04:14;;;;;;;13.02;8.95;;;;;;;7.30;100.00;102581.81;5211943;28;20390;-78
2023/02/14 12:06:44;;;;;;;13.50;8.80;;;;;;;7.42;100.00;102571.53;5204769;28;20032;-78
2023/02/14 12:09:21;;;;;;;12.98;8.73;;;;;;;7.46;100.00;102568.09;5211840;28;20037;-76
2023/02/14 12:11:55;;;;;;;12.93;8.55;;;;;;;7.61;100.00;102563.03;5211221;28;20036;-77
2023/02/14 12:14:29;;;;;;;12.73;8.40;;;;;;;7.65;100.00;102570.00;5202742;28;20709;-77
2023/02/14 12:17:08;;;;;;;13.38;7.75;;;;;;;7.54;100.00;102563.81;5202928;28;20037;-78
2023/02/14 12:19:54;;;;;;;11.18;7.72;;;;;;;7.65;100.00;102556.09;5206041;28;20034;-76